createdAt,value
2022-10-01T00:02:00.422Z,11.62
2022-10-01T00:04:29.031Z,11.61
2022-10-01T00:06:59.198Z,11.60
2022-10-01T00:09:32.567Z,11.60
2022-10-01T00:12:03.454Z,11.58
2022-10-01T00:14:30.805Z,11.57
2022-10-01T00:16:58.198Z,11.56
2022-10-01T00:19:25.631Z,11.56
2022-10-01T00:21:52.974Z,11.55
2022-10-01T00:24:20.302Z,11.53
2022-10-01T00:26:48.097Z,11.54
2022-10-01T00:29:15.504Z,11.52
2022-10-01T00:31:43.349Z,11.50
2022-10-01T00:34:14.966Z,11.50
2022-10-01T00:36:42.579Z,11.48
2022-10-01T00:39:12.326Z,11.48
2022-10-01T00:41:39.845Z,11.47
2022-10-01T00:44:34.777Z,11.47
2022-10-01T00:47:13.778Z,11.47
2022-10-01T00:49:43.704Z,11.47
2022-10-01T00:52:22.113Z,11.46
2022-10-01T00:55:04.891Z,11.46
2022-10-01T00:57:34.588Z,11.43
2022-10-01T01:00:07.813Z,11.46
2022-10-01T01:02:35.855Z,11.45
2022-10-01T01:05:05.604Z,11.46
2022-10-01T01:07:34.181Z,11.45
2022-10-01T01:10:04.279Z,11.45
2022-10-01T01:12:58.985Z,11.43
2022-10-01T01:15:43.519Z,11.44
2022-10-01T01:18:42.947Z,11.43
2022-10-01T01:21:24.907Z,11.40
2022-10-01T01:24:27.344Z,11.39
2022-10-01T01:27:16.405Z,11.36
2022-10-01T01:29:55.324Z,11.33
2022-10-01T01:32:53.406Z,11.34
2022-10-01T01:35:39.137Z,11.33
2022-10-01T01:38:17.296Z,11.31
2022-10-01T01:40:51.387Z,11.30
2022-10-01T01:43:25.524Z,11.28
2022-10-01T01:45:58.415Z,11.27
2022-10-01T01:48:29.228Z,11.26
2022-10-01T01:51:14.293Z,11.27
2022-10-01T01:53:41.722Z,11.25
2022-10-01T01:56:09.658Z,11.26
2022-10-01T01:58:39.142Z,11.25
2022-10-01T02:01:06.682Z,11.27
2022-10-01T02:03:36.699Z,11.26
2022-10-01T02:06:29.098Z,11.28
2022-10-01T02:09:31.599Z,11.28
2022-10-01T02:12:24.646Z,11.28
2022-10-01T02:15:09.592Z,11.30
2022-10-01T02:17:59.401Z,11.29
2022-10-01T02:20:42.205Z,11.30
2022-10-01T02:23:19.440Z,11.30
2022-10-01T02:25:55.430Z,11.28
2022-10-01T02:28:27.477Z,11.29
2022-10-01T02:30:57.369Z,11.29
2022-10-01T02:33:32.442Z,11.27
2022-10-01T02:36:06.137Z,11.27
2022-10-01T02:38:38.376Z,11.26
2022-10-01T02:41:11.860Z,11.27
2022-10-01T02:44:05.633Z,11.25
2022-10-01T02:46:58.680Z,11.23
2022-10-01T02:49:30.845Z,11.23
2022-10-01T02:52:27.465Z,11.25
2022-10-01T02:55:01.020Z,11.26
2022-10-01T02:57:29.592Z,11.27
2022-10-01T03:00:06.497Z,11.28
2022-10-01T03:02:33.951Z,11.26
2022-10-01T03:05:02.040Z,11.27
2022-10-01T03:07:35.461Z,11.28
2022-10-01T03:10:05.393Z,11.30
2022-10-01T03:12:33.085Z,11.28
2022-10-01T03:15:00.920Z,11.30
2022-10-01T03:17:28.769Z,11.30
2022-10-01T03:19:56.117Z,11.31
2022-10-01T03:22:24.097Z,11.33
2022-10-01T03:24:53.120Z,11.35
2022-10-01T03:27:22.172Z,11.36
2022-10-01T03:29:50.170Z,11.37
2022-10-01T03:32:17.859Z,11.39
2022-10-01T03:34:45.272Z,11.40
2022-10-01T03:37:12.725Z,11.41
2022-10-01T03:39:40.144Z,11.41
2022-10-01T03:42:07.491Z,11.43
2022-10-01T03:44:34.884Z,11.43
2022-10-01T03:47:02.233Z,11.45
2022-10-01T03:49:29.694Z,11.48
2022-10-01T03:51:57.023Z,11.49
2022-10-01T03:54:25.436Z,11.51
2022-10-01T03:56:52.793Z,11.54
2022-10-01T03:59:20.265Z,11.54
2022-10-01T04:01:47.980Z,11.55
2022-10-01T04:04:15.588Z,11.57
2022-10-01T04:06:42.925Z,11.58
2022-10-01T04:09:10.261Z,11.59
2022-10-01T04:11:39.452Z,11.58
2022-10-01T04:14:06.838Z,11.61
2022-10-01T04:16:36.428Z,11.63
2022-10-01T04:19:05.056Z,11.65
2022-10-01T04:21:32.815Z,11.65
2022-10-01T04:24:02.924Z,11.67
2022-10-01T04:26:30.274Z,11.68
2022-10-01T04:28:57.609Z,11.72
2022-10-01T04:31:25.043Z,11.72
2022-10-01T04:33:57.375Z,11.76
2022-10-01T04:36:26.106Z,11.76
2022-10-01T04:39:01.830Z,11.79
2022-10-01T04:41:32.106Z,11.81
2022-10-01T04:44:00.068Z,11.83
2022-10-01T04:46:30.272Z,11.86
2022-10-01T04:48:58.053Z,11.88
2022-10-01T04:51:25.510Z,11.92
2022-10-01T04:53:52.911Z,11.94
2022-10-01T04:56:20.284Z,11.95
2022-10-01T04:58:48.510Z,11.97
2022-10-01T05:01:15.946Z,12.00
2022-10-01T05:03:43.301Z,12.00
2022-10-01T05:06:10.719Z,12.03
2022-10-01T05:08:38.203Z,12.04
2022-10-01T05:11:05.717Z,12.06
2022-10-01T05:13:33.132Z,12.07
2022-10-01T05:16:02.223Z,12.09
2022-10-01T05:18:30.148Z,12.11
2022-10-01T05:20:57.625Z,12.14
2022-10-01T05:23:24.963Z,12.16
2022-10-01T05:25:52.311Z,12.18
2022-10-01T05:28:22.392Z,12.18
2022-10-01T05:30:51.090Z,12.21
2022-10-01T05:33:18.591Z,12.23
2022-10-01T05:35:45.945Z,12.24
2022-10-01T05:38:13.289Z,12.26
2022-10-01T05:40:46.223Z,12.27
2022-10-01T05:43:14.508Z,12.29
2022-10-01T05:45:43.171Z,12.31
2022-10-01T05:48:11.197Z,12.32
2022-10-01T05:50:40.660Z,12.35
2022-10-01T05:53:11.576Z,12.35
2022-10-01T05:55:39.084Z,12.36
2022-10-01T05:58:11.047Z,12.41
2022-10-01T06:00:41.183Z,12.43
2022-10-01T06:03:12.929Z,12.44
2022-10-01T06:05:40.818Z,12.46
2022-10-01T06:08:09.782Z,12.47
2022-10-01T06:10:38.236Z,12.51
2022-10-01T06:13:06.479Z,12.54
2022-10-01T06:15:38.125Z,12.56
2022-10-01T06:18:08.345Z,12.59
2022-10-01T06:20:36.910Z,12.61
2022-10-01T06:23:09.960Z,12.64
2022-10-01T06:25:38.328Z,12.66
2022-10-01T06:28:08.459Z,12.69
2022-10-01T06:30:38.876Z,12.72
2022-10-01T06:33:15.973Z,12.77
2022-10-01T06:35:47.194Z,12.78
2022-10-01T06:38:16.087Z,12.83
2022-10-01T06:40:43.866Z,12.86
2022-10-01T06:43:11.216Z,12.92
2022-10-01T06:45:41.014Z,12.96
2022-10-01T06:48:13.921Z,12.99
2022-10-01T06:50:47.673Z,13.02
2022-10-01T06:53:17.335Z,13.05
2022-10-01T06:55:45.300Z,13.09
2022-10-01T06:58:15.524Z,13.12
2022-10-01T07:00:44.211Z,13.21
2022-10-01T07:03:19.755Z,13.30
2022-10-01T07:05:48.522Z,13.46
2022-10-01T07:08:16.771Z,13.57
2022-10-01T07:10:45.975Z,13.57
2022-10-01T07:13:20.240Z,13.58
2022-10-01T07:15:47.702Z,13.58
2022-10-01T07:18:15.206Z,13.58
2022-10-01T07:20:42.537Z,13.61
2022-10-01T07:23:15.602Z,13.67
2022-10-01T07:25:44.147Z,13.69
2022-10-01T07:28:18.482Z,13.74
2022-10-01T07:31:12.123Z,13.80
2022-10-01T07:33:40.403Z,13.84
2022-10-01T07:36:11.308Z,13.94
2022-10-01T07:38:38.754Z,14.03
2022-10-01T07:41:06.194Z,14.13
2022-10-01T07:43:34.609Z,14.27
2022-10-01T07:46:03.442Z,14.40
2022-10-01T07:48:31.037Z,14.49
2022-10-01T07:50:58.371Z,14.58
2022-10-01T07:53:25.950Z,14.64
2022-10-01T07:55:53.494Z,14.67
2022-10-01T07:58:23.911Z,14.69
2022-10-01T08:00:56.300Z,14.69
2022-10-01T08:03:25.027Z,14.68
2022-10-01T08:05:53.633Z,14.66
2022-10-01T08:08:21.031Z,14.64
2022-10-01T08:10:50.570Z,14.61
2022-10-01T08:13:18.582Z,14.59
2022-10-01T08:15:53.461Z,14.57
2022-10-01T08:18:22.669Z,14.53
2022-10-01T08:20:50.616Z,14.51
2022-10-01T08:23:18.028Z,14.49
2022-10-01T08:25:47.715Z,14.50
2022-10-01T08:28:16.059Z,14.55
2022-10-01T08:30:46.109Z,14.62
2022-10-01T08:33:14.701Z,14.69
2022-10-01T08:35:43.582Z,14.75
2022-10-01T08:38:12.800Z,14.79
2022-10-01T08:40:50.414Z,14.82
2022-10-01T08:43:29.420Z,14.82
2022-10-01T08:46:04.621Z,14.79
2022-10-01T08:48:47.640Z,14.77
2022-10-01T08:51:39.145Z,14.73
2022-10-01T08:54:34.897Z,14.69
2022-10-01T08:57:10.298Z,14.68
2022-10-01T08:59:44.809Z,14.66
2022-10-01T09:02:27.391Z,14.66
2022-10-01T09:05:05.045Z,14.68
2022-10-01T09:08:24.919Z,14.72
2022-10-01T09:11:13.064Z,14.73
2022-10-01T09:14:15.393Z,14.77
2022-10-01T09:17:12.788Z,14.76
2022-10-01T09:19:54.267Z,14.80
2022-10-01T09:22:40.364Z,14.91
2022-10-01T09:25:24.995Z,15.04
2022-10-01T09:28:02.300Z,15.16
2022-10-01T09:30:31.726Z,15.31
2022-10-01T09:33:11.472Z,15.45
2022-10-01T09:36:23.108Z,15.63
2022-10-01T09:39:26.873Z,15.70
2022-10-01T09:41:54.298Z,15.72
2022-10-01T09:44:37.475Z,15.76
2022-10-01T09:47:20.186Z,15.78
2022-10-01T09:49:49.791Z,15.79
2022-10-01T09:52:28.713Z,15.81
2022-10-01T09:55:22.670Z,15.95
2022-10-01T09:58:08.303Z,16.10
2022-10-01T10:00:38.621Z,16.24
2022-10-01T10:03:06.127Z,16.41
2022-10-01T10:05:48.100Z,16.53
2022-10-01T10:08:35.632Z,16.53
2022-10-01T10:11:09.606Z,16.52
2022-10-01T10:13:42.026Z,16.59
2022-10-01T10:16:25.912Z,16.70
2022-10-01T10:19:15.480Z,16.86
2022-10-01T10:21:57.889Z,17.04
2022-10-01T10:24:32.575Z,17.20
2022-10-01T10:27:03.423Z,17.33
2022-10-01T10:29:34.957Z,17.30
2022-10-01T10:32:19.152Z,17.34
2022-10-01T10:34:46.962Z,17.32
2022-10-01T10:37:23.362Z,17.27
2022-10-01T10:39:53.507Z,17.30
2022-10-01T10:42:22.995Z,17.36
2022-10-01T10:45:03.436Z,17.42
2022-10-01T10:47:33.104Z,17.48
2022-10-01T10:50:06.043Z,17.57
2022-10-01T10:52:37.318Z,17.63
2022-10-01T10:55:30.871Z,17.77
2022-10-01T10:58:42.297Z,17.92
2022-10-01T11:01:20.140Z,18.08
2022-10-01T11:03:55.274Z,18.23
2022-10-01T11:06:23.227Z,18.39
2022-10-01T11:09:04.715Z,18.45
2022-10-01T11:12:01.207Z,18.50
2022-10-01T11:14:52.200Z,18.56
2022-10-01T11:18:02.297Z,18.58
2022-10-01T11:21:03.609Z,18.54
2022-10-01T11:24:22.371Z,18.45
2022-10-01T11:27:06.424Z,18.43
2022-10-01T11:30:14.177Z,18.47
2022-10-01T11:33:22.082Z,18.54
2022-10-01T11:36:33.940Z,18.63
2022-10-01T11:39:16.621Z,18.51
2022-10-01T11:42:13.125Z,18.36
2022-10-01T11:44:57.377Z,18.25
2022-10-01T11:47:47.879Z,18.23
2022-10-01T11:50:39.096Z,18.26
2022-10-01T11:53:20.723Z,18.28
2022-10-01T11:56:17.113Z,18.29
2022-10-01T11:58:59.353Z,18.40
2022-10-01T12:01:53.482Z,18.42
2022-10-01T12:04:35.756Z,18.37
2022-10-01T12:07:43.060Z,18.22
2022-10-01T12:10:34.383Z,18.01
2022-10-01T12:13:16.630Z,17.78
2022-10-01T12:15:58.786Z,17.60
2022-10-01T12:18:44.172Z,17.46
2022-10-01T12:21:39.524Z,17.33
2022-10-01T12:24:38.820Z,17.19
2022-10-01T12:28:01.053Z,17.06
2022-10-01T12:31:16.265Z,16.85
2022-10-01T12:34:25.199Z,16.65
2022-10-01T12:37:55.073Z,16.59
2022-10-01T12:41:30.913Z,16.72
2022-10-01T12:44:16.989Z,16.93
2022-10-01T12:47:18.880Z,17.19
2022-10-01T12:50:11.796Z,17.47
2022-10-01T12:53:20.516Z,17.61
2022-10-01T12:56:09.196Z,17.73
2022-10-01T12:59:06.227Z,17.85
2022-10-01T13:01:42.718Z,17.93
2022-10-01T13:04:23.752Z,18.00
2022-10-01T13:07:19.056Z,18.04
2022-10-01T13:10:03.335Z,18.12
2022-10-01T13:13:04.273Z,18.21
2022-10-01T13:15:39.142Z,18.24
2022-10-01T13:18:43.515Z,18.30
2022-10-01T13:21:34.240Z,18.37
2022-10-01T13:24:27.156Z,18.38
2022-10-01T13:27:21.752Z,18.30
2022-10-01T13:30:03.360Z,18.16
2022-10-01T13:32:33.948Z,18.04
2022-10-01T13:35:39.460Z,17.90
2022-10-01T13:38:33.636Z,17.74
2022-10-01T13:41:05.120Z,17.59
2022-10-01T13:43:35.210Z,17.46
2022-10-01T13:46:11.254Z,17.37
2022-10-01T13:48:48.540Z,17.29
2022-10-01T13:51:16.948Z,17.27
2022-10-01T13:53:44.887Z,17.30
2022-10-01T13:56:29.797Z,17.40
2022-10-01T13:58:57.768Z,17.54
2022-10-01T14:01:40.216Z,17.55
2022-10-01T14:04:43.389Z,17.57
2022-10-01T14:07:25.159Z,17.57
2022-10-01T14:09:58.365Z,17.59
2022-10-01T14:12:52.971Z,17.69
2022-10-01T14:15:44.425Z,17.68
2022-10-01T14:18:21.986Z,17.62
2022-10-01T14:22:05.548Z,17.54
2022-10-01T14:25:27.063Z,17.42
2022-10-01T14:28:31.815Z,17.41
2022-10-01T14:31:20.577Z,17.50
2022-10-01T14:34:24.830Z,17.61
2022-10-01T14:36:55.860Z,17.71
2022-10-01T14:39:27.731Z,17.79
2022-10-01T14:41:58.021Z,17.91
2022-10-01T14:44:28.490Z,18.01
2022-10-01T14:46:58.866Z,18.12
2022-10-01T14:49:32.343Z,18.14
2022-10-01T14:52:08.055Z,18.20
2022-10-01T14:54:46.965Z,18.24
2022-10-01T14:57:49.964Z,18.32
2022-10-01T15:00:28.319Z,18.39
2022-10-01T15:03:07.609Z,18.47
2022-10-01T15:05:37.111Z,18.52
2022-10-01T15:08:36.369Z,18.62
2022-10-01T15:11:27.992Z,18.75
2022-10-01T15:14:04.951Z,18.85
2022-10-01T15:16:33.511Z,18.90
2022-10-01T15:19:09.210Z,19.01
2022-10-01T15:21:45.193Z,19.07
2022-10-01T15:24:43.305Z,19.08
2022-10-01T15:27:15.191Z,19.00
2022-10-01T15:29:44.365Z,18.94
2022-10-01T15:32:18.043Z,18.90
2022-10-01T15:34:57.837Z,18.87
2022-10-01T15:37:34.770Z,18.89
2022-10-01T15:40:05.878Z,18.84
2022-10-01T15:42:34.803Z,18.77
2022-10-01T15:45:08.163Z,18.73
2022-10-01T15:47:37.673Z,18.65
2022-10-01T15:50:10.835Z,18.58
2022-10-01T15:53:03.259Z,18.52
2022-10-01T15:55:35.432Z,18.45
2022-10-01T15:58:15.559Z,18.40
2022-10-01T16:01:06.474Z,18.31
2022-10-01T16:03:39.420Z,18.23
2022-10-01T16:06:23.573Z,18.15
2022-10-01T16:09:14.474Z,18.04
2022-10-01T16:12:19.952Z,17.85
2022-10-01T16:15:03.376Z,17.68
2022-10-01T16:17:37.319Z,17.55
2022-10-01T16:20:13.875Z,17.45
2022-10-01T16:22:43.392Z,17.38
2022-10-01T16:25:22.742Z,17.32
2022-10-01T16:27:57.876Z,17.20
2022-10-01T16:30:27.827Z,17.13
2022-10-01T16:32:57.847Z,17.04
2022-10-01T16:35:30.314Z,16.96
2022-10-01T16:37:58.250Z,16.88
2022-10-01T16:40:32.844Z,16.82
2022-10-01T16:43:00.831Z,16.75
2022-10-01T16:45:38.624Z,16.67
2022-10-01T16:48:19.483Z,16.57
2022-10-01T16:50:47.303Z,16.48
2022-10-01T16:53:20.309Z,16.44
2022-10-01T16:55:47.766Z,16.37
2022-10-01T16:58:15.689Z,16.30
2022-10-01T17:00:43.248Z,16.23
2022-10-01T17:03:18.364Z,16.18
2022-10-01T17:05:46.035Z,16.11
2022-10-01T17:08:14.648Z,16.02
2022-10-01T17:10:56.853Z,15.98
2022-10-01T17:13:31.278Z,15.91
2022-10-01T17:15:59.886Z,15.84
2022-10-01T17:18:27.702Z,15.79
2022-10-01T17:20:56.172Z,15.69
2022-10-01T17:23:23.994Z,15.62
2022-10-01T17:25:51.380Z,15.56
2022-10-01T17:28:20.544Z,15.53
2022-10-01T17:30:49.388Z,15.47
2022-10-01T17:33:19.550Z,15.41
2022-10-01T17:35:51.815Z,15.35
2022-10-01T17:38:19.685Z,15.29
2022-10-01T17:40:51.775Z,15.27
2022-10-01T17:43:21.525Z,15.22
2022-10-01T17:46:00.627Z,15.17
2022-10-01T17:48:29.856Z,15.12
2022-10-01T17:51:08.359Z,15.09
2022-10-01T17:53:42.183Z,15.04
2022-10-01T17:56:15.650Z,15.01
2022-10-01T17:58:45.527Z,14.96
2022-10-01T18:01:19.513Z,14.92
2022-10-01T18:03:47.375Z,14.85
2022-10-01T18:06:16.012Z,14.81
2022-10-01T18:08:55.019Z,14.77
2022-10-01T18:11:25.783Z,14.69
2022-10-01T18:13:53.287Z,14.63
2022-10-01T18:16:21.907Z,14.57
2022-10-01T18:21:47.209Z,14.47
2022-10-01T18:24:15.764Z,14.44
2022-10-01T18:26:45.542Z,14.39
2022-10-01T18:29:24.045Z,14.35
2022-10-01T18:32:14.283Z,14.32
2022-10-01T18:35:21.783Z,14.25
2022-10-01T18:37:58.339Z,14.18
2022-10-01T18:40:36.633Z,14.13
2022-10-01T18:43:20.394Z,14.07
2022-10-01T18:46:42.344Z,14.04
2022-10-01T18:49:43.012Z,13.96
2022-10-01T18:52:35.851Z,13.92
2022-10-01T18:55:31.263Z,13.90
2022-10-01T18:58:35.600Z,13.88
2022-10-01T19:01:47.795Z,13.87
2022-10-01T19:04:47.570Z,13.87
2022-10-01T19:07:53.729Z,13.87
2022-10-01T19:10:45.028Z,13.85
2022-10-01T19:13:26.628Z,13.82
2022-10-01T19:16:55.421Z,13.80
2022-10-01T19:19:43.701Z,13.74
2022-10-01T19:22:52.901Z,13.72
2022-10-01T19:25:42.549Z,13.67
2022-10-01T19:28:39.451Z,13.64
2022-10-01T19:31:41.573Z,13.59
2022-10-01T19:34:26.207Z,13.55
2022-10-01T19:37:02.087Z,13.51
2022-10-01T19:39:38.724Z,13.49
2022-10-01T19:42:17.364Z,13.46
2022-10-01T19:45:11.857Z,13.45
2022-10-01T19:48:07.879Z,13.41
2022-10-01T19:50:42.244Z,13.38
2022-10-01T19:53:34.156Z,13.38
2022-10-01T19:56:02.160Z,13.30
2022-10-01T19:58:32.479Z,13.29
2022-10-01T20:01:03.798Z,13.28
2022-10-01T20:03:38.687Z,13.26
2022-10-01T20:06:24.868Z,13.25
2022-10-01T20:09:07.605Z,13.23
2022-10-01T20:11:51.577Z,13.21
2022-10-01T20:15:09.407Z,13.21
2022-10-01T20:18:07.932Z,13.16
2022-10-01T20:20:44.841Z,13.13
2022-10-01T20:23:59.108Z,13.14
2022-10-01T20:26:50.834Z,13.11
2022-10-01T20:29:43.277Z,13.09
2022-10-01T20:32:33.198Z,13.09
2022-10-01T20:35:40.516Z,13.08
2022-10-01T20:38:25.214Z,13.05
2022-10-01T20:40:58.418Z,13.02
2022-10-01T20:43:44.422Z,13.01
2022-10-01T20:46:26.506Z,12.99
2022-10-01T20:49:12.225Z,12.98
2022-10-01T20:51:52.957Z,12.97
2022-10-01T20:54:26.989Z,12.95
2022-10-01T20:57:46.971Z,12.94
2022-10-01T21:00:23.660Z,12.91
2022-10-01T21:03:05.396Z,12.90
2022-10-01T21:05:43.706Z,12.88
2022-10-01T21:08:20.826Z,12.87
2022-10-01T21:10:53.985Z,12.84
2022-10-01T21:13:30.347Z,12.84
2022-10-01T21:16:25.317Z,12.80
2022-10-01T21:19:17.453Z,12.77
2022-10-01T21:22:37.571Z,12.73
2022-10-01T21:25:28.136Z,12.70
2022-10-01T21:28:28.883Z,12.68
2022-10-01T21:31:47.428Z,12.66
2022-10-01T21:34:55.025Z,12.63
2022-10-01T21:37:33.952Z,12.61
2022-10-01T21:40:31.748Z,12.61
2022-10-01T21:43:16.659Z,12.59
2022-10-01T21:45:49.942Z,12.57
2022-10-01T21:48:41.452Z,12.58
2022-10-01T21:51:17.752Z,12.57
2022-10-01T21:54:16.825Z,12.58
2022-10-01T21:56:53.042Z,12.57
2022-10-01T22:00:11.924Z,12.58
2022-10-01T22:03:06.272Z,12.60
2022-10-01T22:05:52.533Z,12.60
2022-10-01T22:08:56.024Z,12.61
2022-10-01T22:11:31.561Z,12.60
2022-10-01T22:14:03.886Z,12.62
2022-10-01T22:16:42.866Z,12.63
2022-10-01T22:19:18.132Z,12.63
2022-10-01T22:21:52.768Z,12.65
2022-10-01T22:24:39.509Z,12.66
2022-10-01T22:27:21.036Z,12.66
2022-10-01T22:30:06.749Z,12.66
2022-10-01T22:33:02.915Z,12.65
2022-10-01T22:36:02.940Z,12.67
2022-10-01T22:38:40.702Z,12.66
2022-10-01T22:41:25.115Z,12.71
2022-10-01T22:43:52.670Z,12.71
2022-10-01T22:46:28.929Z,12.74
2022-10-01T22:49:20.510Z,12.76
2022-10-01T22:52:37.105Z,12.79
2022-10-01T22:55:28.141Z,12.81
2022-10-01T22:58:23.056Z,12.80
2022-10-01T23:01:18.941Z,12.82
2022-10-01T23:04:20.540Z,12.82
2022-10-01T23:07:31.594Z,12.82
2022-10-01T23:10:13.775Z,12.81
2022-10-01T23:12:59.642Z,12.81
2022-10-01T23:15:54.918Z,12.81
2022-10-01T23:18:45.996Z,12.81
2022-10-01T23:21:33.142Z,12.83
2022-10-01T23:24:28.582Z,12.83
2022-10-01T23:27:11.857Z,12.86
2022-10-01T23:30:08.620Z,12.88
2022-10-01T23:32:59.737Z,12.91
2022-10-01T23:35:48.746Z,12.93
2022-10-01T23:38:22.021Z,12.96
2022-10-01T23:40:52.120Z,12.98
2022-10-01T23:43:33.096Z,13.02
2022-10-01T23:46:11.620Z,13.03
2022-10-01T23:49:12.396Z,13.06
2022-10-01T23:51:58.981Z,13.08
2022-10-01T23:54:38.376Z,13.09
2022-10-01T23:57:19.108Z,13.12
